ADDS METAR Data INFO
IDs: Format: Raw Decoded Include TAF

Data at: 2146 UTC 15 Dec 2017

KDEQ 152053Z AUTO 26010KT 10SM FEW055 13/M01 A3017 RMK AO2 SLP217 T01281006 56018
KDEQ 151953Z AUTO 25008KT 10SM FEW050 13/01 A3017 RMK AO2 SLP217 T01280006
KDEQ 151853Z AUTO 22006KT 10SM CLR 11/01 A3021 RMK AO2 SLP229 T01110006
KDEQ 151753Z AUTO 15003KT 10SM CLR 09/01 A3023 RMK AO2 SLP236 I6000 T00940006 10094 21056 58009
KDEQ 151653Z AUTO VRB04KT 10SM CLR 06/00 A3026 RMK AO2 SLP248 T00560000
KDEQ 151553Z AUTO 00000KT 10SM CLR 02/00 A3027 RMK AO2 SLP250 T00220000
KDEQ 151453Z AUTO 00000KT 10SM CLR M02/M03 A3025 RMK AO2 SLP245 I3000 T10221028 51011
KDEQ 151353Z AUTO 00000KT 6SM BR CLR M04/M04 A3025 RMK AO2 SLP244 I1000 T10441044
KDEQ 151253Z AUTO 00000KT 7SM CLR M05/M05 A3023 RMK AO2 SLP238 I1000 T10501050
KDEQ 151153Z AUTO 00000KT 10SM CLR M04/M04 A3022 RMK AO2 SLP234 I1000 I6000 T10441044 11011 21050 53006
KDEQ 151053Z AUTO 00000KT 10SM CLR M04/M04 A3020 RMK AO2 SLP228 I1000 T10391044
KDEQ 150953Z AUTO 00000KT 9SM CLR M04/M04 A3022 RMK AO2 SLP232 I1000 T10391039
KDEQ 150853Z AUTO 00000KT 10SM CLR M03/M04 A3021 RMK AO2 SLP228 T10331039 53004
KDEQ 150753Z AUTO 00000KT 10SM CLR M03/M03 A3019 RMK AO2 SLP221 T10281033
KDEQ 150653Z AUTO 00000KT 10SM CLR M03/M03 A3018 RMK AO2 SLP220 T10281033
KDEQ 150553Z AUTO 00000KT 10SM CLR M02/M03 A3019 RMK AO2 SLP224 T10171028 10100 21022 401671028 51016
KDEQ 150453Z AUTO 00000KT 10SM CLR M01/M02 A3019 RMK AO2 SLP221 T10061022
KDEQ 150353Z AUTO 00000KT 10SM CLR 03/M02 A3016 RMK AO2 SLP214 T00331022
KDEQ 150253Z AUTO 33004KT 10SM CLR 05/M02 A3015 RMK AO2 SLP208 T00501017 53026
KDEQ 150153Z AUTO 33004KT 10SM CLR 07/M02 A3011 RMK AO2 SLP198 T00671017
KDEQ 150053Z AUTO 34006KT 10SM CLR 08/M02 A3010 RMK AO2 SLP193 T00831017
KDEQ 142353Z AUTO 34008KT 10SM CLR 10/M02 A3007 RMK AO2 SLP182 T01001022 10167 20100 53029
KDEQ 142253Z AUTO 34006KT 10SM CLR 12/M02 A3004 RMK AO2 SLP171 T01171022
KDEQ 142153Z AUTO 35009KT 10SM CLR 14/M03 A3001 RMK AO2 SLP162 T01391028
KDEQ 142053Z AUTO 35008G18KT 10SM CLR 16/M03 A2998 RMK AO2 SLP152 T01561033 55016
KDEQ 141953Z AUTO 32008KT 10SM CLR 16/M02 A2998 RMK AO2 SLP152 T01611017
KDEQ 141853Z AUTO 00000KT 10SM CLR 16/M01 A3000 RMK AO2 SLP159 T01561011
KDEQ 141753Z AUTO 34008KT 10SM CLR 16/M01 A3003 RMK AO2 SLP169 I6000 T01561006 10156 21028 50003
KDEQ 141653Z AUTO 01007KT 10SM CLR 14/00 A3005 RMK AO2 SLP174 T01440000
KDEQ 141553Z AUTO 02009KT 10SM CLR 12/01 A3004 RMK AO2 SLP171 T01220006
KDEQ 141453Z AUTO 00000KT 10SM CLR 07/02 A3002 RMK AO2 SLP166 I3000 T00670022 51026
KDEQ 141353Z AUTO 11004KT 10SM CLR 01/M01 A3000 RMK AO2 SLP158 T00061011
KDEQ 141253Z AUTO 00000KT 10SM CLR M03/M03 A2997 RMK AO2 SLP150 I1000 T10281028
KDEQ 141153Z AUTO 00000KT 10SM CLR M01/M02 A2994 RMK AO2 SLP139 I1000 I6000 T10111022 10006 21028 53016
KDEQ 141053Z AUTO 00000KT 10SM CLR M02/M02 A2991 RMK AO2 SLP129 I1000 T10221022
KDEQ 140953Z AUTO 00000KT 10SM CLR M02/M02 A2990 RMK AO2 SLP122 T10221022